createdAt,value
2023-04-12T00:00:11.848Z,99420.78
2023-04-12T00:02:42.119Z,99430.34
2023-04-12T00:05:11.573Z,99425.28
2023-04-12T00:07:42.828Z,99426.34
2023-04-12T00:10:11.798Z,99410.69
2023-04-12T00:12:41.004Z,99399.53
2023-04-12T00:15:10.907Z,99401.13
2023-04-12T00:17:39.451Z,99396.34
2023-04-12T00:20:12.763Z,99400.59
2023-04-12T00:22:42.942Z,99403.47
2023-04-12T00:25:12.168Z,99401.88
2023-04-12T00:27:40.785Z,99390.47
2023-04-12T00:30:10.436Z,99388.06
2023-04-12T00:32:38.876Z,99388.06
2023-04-12T00:35:08.700Z,99372.66
2023-04-12T00:37:38.731Z,99381.16
2023-04-12T00:40:11.873Z,99377.72
2023-04-12T00:42:40.326Z,99378.75
2023-04-12T00:45:10.505Z,99370.81
2023-04-12T00:47:39.599Z,99380.34
2023-04-12T00:50:09.926Z,99379.81
2023-04-12T00:52:39.192Z,99366.56
2023-04-12T00:55:10.988Z,99362.88
2023-04-12T00:57:41.050Z,99367.38
2023-04-12T01:00:13.570Z,99362.31
2023-04-12T01:02:47.880Z,99375.06
2023-04-12T01:05:22.389Z,99375.06
2023-04-12T01:08:06.236Z,99373.22
2023-04-12T01:10:46.308Z,99374.25
2023-04-12T01:13:29.658Z,99364.72
2023-04-12T01:16:05.685Z,99357.56
2023-04-12T01:18:41.983Z,99363.09
2023-04-12T01:21:18.065Z,99363.34
2023-04-12T01:24:08.457Z,99355.91
2023-04-12T01:26:44.320Z,99353.03
2023-04-12T01:29:17.754Z,99343.44
2023-04-12T01:32:00.358Z,99343.44
2023-04-12T01:34:32.909Z,99337.03
2023-04-12T01:37:04.395Z,99336.56
2023-04-12T01:39:35.213Z,99335.50
2023-04-12T01:42:04.255Z,99319.88
2023-04-12T01:44:34.094Z,99307.13
2023-04-12T01:47:02.481Z,99317.22
2023-04-12T01:49:37.676Z,99314.31
2023-04-12T01:52:13.990Z,99308.22
2023-04-12T01:54:45.964Z,99294.44
2023-04-12T01:57:16.422Z,99302.94
2023-04-12T01:59:48.955Z,99286.50
2023-04-12T02:02:18.930Z,99289.69
2023-04-12T02:04:48.300Z,99276.69
2023-04-12T02:07:20.535Z,99271.41
2023-04-12T02:09:48.938Z,99264.25
2023-04-12T02:12:21.193Z,99261.59
2023-04-12T02:14:52.136Z,99241.69
2023-04-12T02:17:21.256Z,99246.19
2023-04-12T02:19:49.958Z,99232.69
2023-04-12T02:22:20.257Z,99232.16
2023-04-12T02:24:49.031Z,99229.25
2023-04-12T02:27:18.857Z,99240.91
2023-04-12T02:29:47.300Z,99241.16
2023-04-12T02:32:17.067Z,99224.16
2023-04-12T02:34:51.397Z,99227.34
2023-04-12T02:37:24.307Z,99223.13
2023-04-12T02:39:52.738Z,99221.25
2023-04-12T02:42:22.396Z,99206.44
2023-04-12T02:44:51.874Z,99207.22
2023-04-12T02:47:22.526Z,99194.22
2023-04-12T02:49:51.632Z,99183.31
2023-04-12T02:52:21.816Z,99181.25
2023-04-12T02:55:07.358Z,99186.53
2023-04-12T02:57:36.295Z,99179.09
2023-04-12T03:00:12.044Z,99172.72
2023-04-12T03:02:47.517Z,99153.09
2023-04-12T03:05:22.180Z,99153.59
2023-04-12T03:07:50.569Z,99166.03
2023-04-12T03:10:23.462Z,99143.75
2023-04-12T03:13:02.726Z,99136.78
2023-04-12T03:15:35.964Z,99133.66
2023-04-12T03:18:06.312Z,99134.44
2023-04-12T03:20:47.479Z,99135.03
2023-04-12T03:23:16.977Z,99140.31
2023-04-12T03:25:49.404Z,99131.00
2023-04-12T03:28:45.804Z,99130.97
2023-04-12T03:31:14.427Z,99129.16
2023-04-12T03:33:48.996Z,99132.38
2023-04-12T03:36:24.268Z,99123.06
2023-04-12T03:39:15.210Z,99112.47
2023-04-12T03:41:45.113Z,99109.03
2023-04-12T03:44:13.537Z,99097.66
2023-04-12T03:46:43.124Z,99093.16
2023-04-12T03:49:14.001Z,99095.56
2023-04-12T03:51:44.023Z,99082.34
2023-04-12T03:54:13.798Z,99086.00
2023-04-12T03:56:54.730Z,99074.63
2023-04-12T03:59:29.307Z,99067.75
2023-04-12T04:01:58.453Z,99063.25
2023-04-12T04:04:30.712Z,99051.06
2023-04-12T04:07:04.046Z,99043.13
2023-04-12T04:09:41.971Z,99041.28
2023-04-12T04:12:11.621Z,99038.06
2023-04-12T04:14:44.981Z,99032.75
2023-04-12T04:17:19.902Z,99021.38
2023-04-12T04:19:52.710Z,99016.59
2023-04-12T04:22:22.851Z,99010.78
2023-04-12T04:24:53.359Z,99014.50
2023-04-12T04:27:22.298Z,98998.84
2023-04-12T04:29:53.998Z,99002.31
2023-04-12T04:32:23.434Z,98989.59
2023-04-12T04:34:59.976Z,98985.28
2023-04-12T04:37:35.865Z,98978.41
2023-04-12T04:40:07.894Z,98971.53
2023-04-12T04:42:39.850Z,98969.09
2023-04-12T04:45:13.777Z,98962.50
2023-04-12T04:47:45.145Z,98966.44
2023-04-12T04:50:14.986Z,98963.25
2023-04-12T04:52:44.628Z,98962.97
2023-04-12T04:55:15.570Z,98962.13
2023-04-12T04:57:46.789Z,98956.53
2023-04-12T05:00:16.723Z,98961.31
2023-04-12T05:02:49.896Z,98939.28
2023-04-12T05:05:26.794Z,98946.44
2023-04-12T05:08:03.185Z,98939.78
2023-04-12T05:10:33.864Z,98947.69
2023-04-12T05:13:04.256Z,98945.31
2023-04-12T05:15:32.873Z,98925.44
2023-04-12T05:18:01.960Z,98926.50
2023-04-12T05:20:33.255Z,98922.50
2023-04-12T05:23:01.860Z,98928.31
2023-04-12T05:25:30.212Z,98911.91
2023-04-12T05:28:14.179Z,98912.97
2023-04-12T05:30:43.327Z,98901.59
2023-04-12T05:33:13.754Z,98898.69
2023-04-12T05:35:47.851Z,98898.13
2023-04-12T05:38:18.757Z,98888.06
2023-04-12T05:40:52.234Z,98898.38
2023-04-12T05:43:25.118Z,98888.38
2023-04-12T05:45:53.606Z,98880.69
2023-04-12T05:48:25.020Z,98887.34
2023-04-12T05:50:57.126Z,98877.31
2023-04-12T05:53:25.490Z,98880.50
2023-04-12T05:55:54.632Z,98867.03
2023-04-12T05:58:24.161Z,98858.03
2023-04-12T06:00:55.782Z,98855.13
2023-04-12T06:03:25.335Z,98842.16
2023-04-12T06:05:58.013Z,98842.97
2023-04-12T06:08:29.465Z,98833.97
2023-04-12T06:10:57.864Z,98830.00
2023-04-12T06:13:28.254Z,98813.03
2023-04-12T06:15:56.736Z,98801.34
2023-04-12T06:18:26.292Z,98804.53
2023-04-12T06:20:55.010Z,98801.88
2023-04-12T06:23:25.098Z,98798.69
2023-04-12T06:25:54.270Z,98782.56
2023-04-12T06:28:23.137Z,98779.94
2023-04-12T06:30:54.294Z,98775.94
2023-04-12T06:33:23.549Z,98791.81
2023-04-12T06:35:53.127Z,98793.97
2023-04-12T06:38:24.079Z,98788.69
2023-04-12T06:40:52.450Z,98784.75
2023-04-12T06:43:22.621Z,98795.31
2023-04-12T06:45:51.153Z,98777.59
2023-04-12T06:48:19.702Z,98768.31
2023-04-12T06:50:48.069Z,98772.53
2023-04-12T06:53:16.509Z,98772.31
2023-04-12T06:55:46.182Z,98764.38
2023-04-12T06:58:14.513Z,98754.06
2023-04-12T07:00:42.927Z,98749.59
2023-04-12T07:03:11.489Z,98742.19
2023-04-12T07:05:40.228Z,98739.56
2023-04-12T07:08:10.142Z,98736.38
2023-04-12T07:10:38.768Z,98741.16
2023-04-12T07:13:08.542Z,98740.13
2023-04-12T07:15:36.892Z,98750.72
2023-04-12T07:18:05.533Z,98746.44
2023-04-12T07:20:33.954Z,98736.94
2023-04-12T07:23:02.368Z,98732.22
2023-04-12T07:25:30.721Z,98724.00
2023-04-12T07:27:59.084Z,98703.38
2023-04-12T07:30:28.891Z,98701.53
2023-04-12T07:33:08.723Z,98681.44
2023-04-12T07:35:44.924Z,98685.41
2023-04-12T07:38:15.000Z,98666.06
2023-04-12T07:40:44.632Z,98663.41
2023-04-12T07:43:13.066Z,98661.31
2023-04-12T07:45:42.777Z,98649.41
2023-04-12T07:48:11.977Z,98645.16
2023-04-12T07:50:41.238Z,98650.75
2023-04-12T07:53:23.652Z,98641.22
2023-04-12T07:55:52.626Z,98629.06
2023-04-12T07:58:22.383Z,98620.59
2023-04-12T08:00:53.015Z,98626.69
2023-04-12T08:03:21.588Z,98633.56
2023-04-12T08:05:53.710Z,98621.91
2023-04-12T08:08:22.788Z,98620.66
2023-04-12T08:10:52.081Z,98610.06
2023-04-12T08:13:20.963Z,98609.53
2023-04-12T08:15:49.467Z,98603.47
2023-04-12T08:18:19.446Z,98608.22
2023-04-12T08:20:49.353Z,98595.53
2023-04-12T08:23:17.874Z,98600.56
2023-04-12T08:25:49.260Z,98586.78
2023-04-12T08:28:17.928Z,98589.72
2023-04-12T08:30:46.366Z,98584.41
2023-04-12T08:33:14.661Z,98583.09
2023-04-12T08:35:44.417Z,98587.31
2023-04-12T08:38:12.724Z,98579.38
2023-04-12T08:40:44.361Z,98588.94
2023-04-12T08:43:13.735Z,98572.00
2023-04-12T08:45:42.287Z,98585.22
2023-04-12T08:48:11.206Z,98579.41
2023-04-12T08:50:39.620Z,98578.88
2023-04-12T08:53:12.146Z,98573.59
2023-04-12T08:55:40.503Z,98583.66
2023-04-12T08:58:10.656Z,98586.84
2023-04-12T09:00:39.537Z,98581.03
2023-04-12T09:03:08.180Z,98591.09
2023-04-12T09:05:36.818Z,98571.75
2023-04-12T09:08:06.424Z,98576.00
2023-04-12T09:10:38.138Z,98568.59
2023-04-12T09:13:07.117Z,98571.50
2023-04-12T09:15:36.103Z,98566.47
2023-04-12T09:18:08.223Z,98563.25
2023-04-12T09:20:37.338Z,98554.00
2023-04-12T09:23:19.972Z,98551.09
2023-04-12T09:25:52.727Z,98555.59
2023-04-12T09:28:24.282Z,98541.81
2023-04-12T09:30:54.104Z,98528.03
2023-04-12T09:33:24.172Z,98537.84
2023-04-12T09:36:01.071Z,98526.44
2023-04-12T09:38:29.789Z,98525.88
2023-04-12T09:41:19.698Z,98511.06
2023-04-12T09:43:49.082Z,98507.84
2023-04-12T09:46:17.463Z,98505.47
2023-04-12T09:48:52.091Z,98512.09
2023-04-12T09:51:29.236Z,98504.66
2023-04-12T09:54:01.451Z,98504.38
2023-04-12T09:56:33.650Z,98504.09
2023-04-12T09:59:04.853Z,98512.34
2023-04-12T10:01:37.567Z,98502.81
2023-04-12T10:04:08.826Z,98496.44
2023-04-12T10:06:38.036Z,98504.94
2023-04-12T10:09:08.652Z,98494.03
2023-04-12T10:11:41.814Z,98483.94
2023-04-12T10:14:11.748Z,98485.81
2023-04-12T10:16:42.972Z,98489.25
2023-04-12T10:19:14.062Z,98481.00
2023-04-12T10:21:42.575Z,98477.03
2023-04-12T10:24:12.155Z,98485.78
2023-04-12T10:26:44.830Z,98472.22
2023-04-12T10:29:30.518Z,98480.72
2023-04-12T10:32:19.613Z,98475.91
2023-04-12T10:34:53.218Z,98471.16
2023-04-12T10:37:22.163Z,98462.66
2023-04-12T10:39:55.773Z,98464.72
2023-04-12T10:42:27.922Z,98457.84
2023-04-12T10:45:18.800Z,98461.03
2023-04-12T10:48:01.880Z,98460.47
2023-04-12T10:50:32.511Z,98464.69
2023-04-12T10:53:27.389Z,98453.28
2023-04-12T10:55:55.819Z,98455.66
2023-04-12T10:59:00.156Z,98456.47
2023-04-12T11:01:35.212Z,98458.84
2023-04-12T11:04:13.306Z,98450.88
2023-04-12T11:06:59.527Z,98447.69
2023-04-12T11:09:48.623Z,98439.44
2023-04-12T11:12:29.208Z,98437.31
2023-04-12T11:15:02.350Z,98441.84
2023-04-12T11:17:43.754Z,98436.53
2023-04-12T11:20:13.746Z,98433.31
2023-04-12T11:22:42.724Z,98454.28
2023-04-12T11:25:11.523Z,98438.63
2023-04-12T11:27:39.979Z,98425.38
2023-04-12T11:30:11.627Z,98447.09
2023-04-12T11:32:41.773Z,98437.81
2023-04-12T11:35:10.853Z,98422.13
2023-04-12T11:37:40.231Z,98427.97
2023-04-12T11:40:11.793Z,98426.91
2023-04-12T11:42:41.925Z,98429.56
2023-04-12T11:45:18.075Z,98428.50
2023-04-12T11:47:47.965Z,98421.03
2023-04-12T11:50:32.306Z,98418.63
2023-04-12T11:53:12.772Z,98405.66
2023-04-12T11:55:41.248Z,98413.28
2023-04-12T11:58:09.883Z,98409.03
2023-04-12T12:00:42.351Z,98405.56
2023-04-12T12:03:11.229Z,98395.69
2023-04-12T12:05:40.928Z,98408.13
2023-04-12T12:08:09.875Z,98402.00
2023-04-12T12:10:55.499Z,98403.84
2023-04-12T12:13:29.378Z,98404.31
2023-04-12T12:15:59.325Z,98407.50
2023-04-12T12:18:29.003Z,98394.22
2023-04-12T12:20:57.427Z,98391.81
2023-04-12T12:23:33.410Z,98396.84
2023-04-12T12:26:17.749Z,98381.47
2023-04-12T12:28:52.417Z,98392.53
2023-04-12T12:31:24.529Z,98386.94
2023-04-12T12:33:57.768Z,98379.72
2023-04-12T12:36:33.364Z,98382.38
2023-04-12T12:39:10.433Z,98380.22
2023-04-12T12:41:40.401Z,98379.13
2023-04-12T12:44:09.017Z,98384.38
2023-04-12T12:49:10.086Z,98368.94
2023-04-12T12:51:38.472Z,98364.16
2023-04-12T12:54:07.757Z,98369.69
2023-04-12T12:56:36.735Z,98371.78
2023-04-12T12:59:05.261Z,98366.97
2023-04-12T13:01:33.748Z,98376.03
2023-04-12T13:04:03.785Z,98375.25
2023-04-12T13:06:32.368Z,98375.81
2023-04-12T13:09:00.949Z,98371.28
2023-04-12T13:11:29.456Z,98366.81
2023-04-12T13:13:57.789Z,98361.50
2023-04-12T13:16:27.107Z,98350.06
2023-04-12T13:18:57.019Z,98353.25
2023-04-12T13:21:27.302Z,98351.38
2023-04-12T13:23:55.740Z,98338.16
2023-04-12T13:26:25.696Z,98352.16
2023-04-12T13:28:54.231Z,98345.50
2023-04-12T13:31:22.768Z,98341.75
2023-04-12T13:33:51.255Z,98324.81
2023-04-12T13:36:19.664Z,98319.94
2023-04-12T13:38:49.442Z,98316.78
2023-04-12T13:41:19.153Z,98333.75
2023-04-12T13:43:47.538Z,98315.16
2023-04-12T13:46:16.075Z,98315.63
2023-04-12T13:48:44.458Z,98319.91
2023-04-12T13:51:12.803Z,98306.00
2023-04-12T13:53:41.155Z,98301.75
2023-04-12T13:56:12.161Z,98305.44
2023-04-12T13:58:40.678Z,98303.31
2023-04-12T14:01:10.055Z,98319.75
2023-04-12T14:03:38.668Z,98331.47
2023-04-12T14:06:09.719Z,98332.25
2023-04-12T14:08:38.134Z,98328.81
2023-04-12T14:11:07.564Z,98327.22
2023-04-12T14:13:37.599Z,98351.94
2023-04-12T14:16:07.717Z,98348.19
2023-04-12T14:18:36.324Z,98350.84
2023-04-12T14:21:05.074Z,98352.16
2023-04-12T14:23:33.907Z,98355.31
2023-04-12T14:26:02.313Z,98340.69
2023-04-12T14:28:31.719Z,98315.66
2023-04-12T14:31:04.955Z,98325.25
2023-04-12T14:33:34.794Z,98310.56
2023-04-12T14:36:05.087Z,98334.72
2023-04-12T14:38:33.816Z,98324.91
2023-04-12T14:41:02.404Z,98341.84
2023-04-12T14:43:30.789Z,98340.78
2023-04-12T14:46:00.694Z,98348.75
2023-04-12T14:48:35.819Z,98344.00
2023-04-12T14:51:04.706Z,98339.19
2023-04-12T14:53:33.319Z,98351.41
2023-04-12T14:56:02.632Z,98343.72
2023-04-12T14:58:31.323Z,98346.38
2023-04-12T15:01:01.403Z,98349.84
2023-04-12T15:03:33.314Z,98338.41
2023-04-12T15:06:01.808Z,98355.94
2023-04-12T15:08:30.118Z,98373.75
2023-04-12T15:10:58.508Z,98386.53
2023-04-12T15:13:33.128Z,98380.22
2023-04-12T15:16:04.237Z,98398.53
2023-04-12T15:18:32.558Z,98393.50
2023-04-12T15:21:03.596Z,98392.19
2023-04-12T15:23:33.385Z,98387.66
2023-04-12T15:26:02.275Z,98384.50
2023-04-12T15:28:30.843Z,98393.84
2023-04-12T15:30:59.502Z,98397.56
2023-04-12T15:33:29.399Z,98403.16
2023-04-12T15:35:57.991Z,98403.75
2023-04-12T15:38:26.569Z,98403.50
2023-04-12T15:40:56.849Z,98420.25
2023-04-12T15:43:26.106Z,98418.44
2023-04-12T15:45:55.354Z,98419.22
2023-04-12T15:48:25.940Z,98417.63
2023-04-12T15:50:57.018Z,98428.84
2023-04-12T15:53:27.702Z,98428.03
2023-04-12T15:55:56.229Z,98416.59
2023-04-12T15:58:25.024Z,98415.81
2023-04-12T16:00:54.443Z,98408.16
2023-04-12T16:03:24.836Z,98419.28
2023-04-12T16:05:53.918Z,98406.78
2023-04-12T16:08:24.410Z,98412.59
2023-04-12T16:10:52.894Z,98402.28
2023-04-12T16:13:21.749Z,98397.19
2023-04-12T16:15:50.342Z,98397.97
2023-04-12T16:18:18.869Z,98387.56
2023-04-12T16:20:47.934Z,98388.34
2023-04-12T16:23:16.752Z,98390.72
2023-04-12T16:25:47.363Z,98383.03
2023-04-12T16:28:18.120Z,98382.25
2023-04-12T16:30:46.612Z,98385.41
2023-04-12T16:33:15.145Z,98391.00
2023-04-12T16:35:43.960Z,98392.38
2023-04-12T16:38:14.693Z,98391.00
2023-04-12T16:40:45.580Z,98382.81
2023-04-12T16:43:14.068Z,98395.81
2023-04-12T16:45:45.630Z,98380.44
2023-04-12T16:48:15.075Z,98376.97
2023-04-12T16:50:47.333Z,98390.00
2023-04-12T16:53:16.841Z,98386.56
2023-04-12T16:55:48.949Z,98383.38
2023-04-12T16:58:18.349Z,98389.00
2023-04-12T17:00:46.784Z,98387.91
2023-04-12T17:03:16.595Z,98400.66
2023-04-12T17:05:46.510Z,98387.69
2023-04-12T17:08:15.690Z,98381.06
2023-04-12T17:10:44.570Z,98394.88
2023-04-12T17:13:19.590Z,98392.75
2023-04-12T17:15:48.979Z,98402.31
2023-04-12T17:18:17.892Z,98406.06
2023-04-12T17:20:47.237Z,98401.81
2023-04-12T17:23:17.364Z,98391.50
2023-04-12T17:25:46.470Z,98392.31
2023-04-12T17:28:16.319Z,98389.13
2023-04-12T17:30:45.033Z,98400.28
2023-04-12T17:33:13.530Z,98406.38
2023-04-12T17:35:42.038Z,98408.28
2023-04-12T17:38:10.735Z,98427.41
2023-04-12T17:40:39.183Z,98438.56
2023-04-12T17:43:07.623Z,98450.28
2023-04-12T17:45:37.597Z,98445.53
2023-04-12T17:48:07.067Z,98451.38
2023-04-12T17:50:35.711Z,98448.97
2023-04-12T17:53:04.217Z,98448.47
2023-04-12T17:55:32.711Z,98448.47
2023-04-12T17:58:01.201Z,98441.31
2023-04-12T18:00:29.737Z,98443.19
2023-04-12T18:02:59.909Z,98446.91
2023-04-12T18:05:28.466Z,98445.59
2023-04-12T18:07:57.100Z,98433.41
2023-04-12T18:10:26.732Z,98430.22
2023-04-12T18:12:55.185Z,98445.09
2023-04-12T18:15:23.784Z,98437.69
2023-04-12T18:17:52.527Z,98433.97
2023-04-12T18:20:22.691Z,98443.50
2023-04-12T18:22:51.448Z,98445.91
2023-04-12T18:25:20.037Z,98446.16
2023-04-12T18:27:48.753Z,98453.88
2023-04-12T18:30:17.707Z,98443.78
2023-04-12T18:32:46.601Z,98452.56
2023-04-12T18:35:15.330Z,98461.59
2023-04-12T18:37:45.678Z,98463.22
2023-04-12T18:40:16.001Z,98462.44
2023-04-12T18:42:45.990Z,98460.56
2023-04-12T18:45:14.950Z,98482.63
2023-04-12T18:47:44.806Z,98495.91
2023-04-12T18:50:14.567Z,98503.88
2023-04-12T18:52:44.424Z,98513.72
2023-04-12T18:55:13.469Z,98511.91
2023-04-12T18:57:41.996Z,98524.88
2023-04-12T19:00:14.540Z,98521.47
2023-04-12T19:02:43.621Z,98531.28
2023-04-12T19:05:14.901Z,98527.06
2023-04-12T19:07:45.093Z,98520.72
2023-04-12T19:10:13.713Z,98519.13
2023-04-12T19:12:42.354Z,98516.72
2023-04-12T19:15:12.245Z,98507.72
2023-04-12T19:17:43.813Z,98517.53
2023-04-12T19:20:15.373Z,98516.50
2023-04-12T19:22:45.507Z,98519.13
2023-04-12T19:25:14.304Z,98528.44
2023-04-12T19:27:42.759Z,98596.66
2023-04-12T19:30:13.007Z,98652.41
2023-04-12T19:32:42.512Z,98650.31
2023-04-12T19:35:11.487Z,98632.31
2023-04-12T19:37:40.000Z,98637.66
2023-04-12T19:40:13.591Z,98629.69
2023-04-12T19:42:42.878Z,98642.19
2023-04-12T19:45:11.602Z,98656.78
2023-04-12T19:47:44.812Z,98648.53
2023-04-12T19:50:15.024Z,98644.03
2023-04-12T19:52:43.941Z,98649.06
2023-04-12T19:55:15.952Z,98649.34
2023-04-12T19:57:45.158Z,98651.47
2023-04-12T20:00:19.669Z,98654.41
2023-04-12T20:02:50.367Z,98653.06
2023-04-12T20:05:18.870Z,98650.97
2023-04-12T20:07:47.231Z,98653.09
2023-04-12T20:10:17.662Z,98650.97
2023-04-12T20:12:46.897Z,98662.66
2023-04-12T20:15:15.335Z,98665.81
2023-04-12T20:17:45.904Z,98665.28
2023-04-12T20:20:15.384Z,98672.72
2023-04-12T20:22:46.022Z,98672.72
2023-04-12T20:25:14.744Z,98666.91
2023-04-12T20:27:51.547Z,98676.97
2023-04-12T20:30:21.152Z,98681.75
2023-04-12T20:32:51.626Z,98683.06
2023-04-12T20:35:20.148Z,98683.59
2023-04-12T20:37:51.209Z,98687.56
2023-04-12T20:40:23.184Z,98689.69
2023-04-12T20:42:52.971Z,98689.13
2023-04-12T20:45:22.177Z,98683.06
2023-04-12T20:47:51.028Z,98691.53
2023-04-12T20:50:22.417Z,98693.41
2023-04-12T20:52:52.114Z,98685.19
2023-04-12T20:55:22.717Z,98688.06
2023-04-12T20:57:55.715Z,98697.88
2023-04-12T21:00:24.264Z,98690.47
2023-04-12T21:02:52.744Z,98711.94
2023-04-12T21:05:21.383Z,98720.94
2023-04-12T21:07:50.308Z,98716.69
2023-04-12T21:10:19.417Z,98711.41
2023-04-12T21:12:48.143Z,98732.59
2023-04-12T21:15:21.785Z,98724.13
2023-04-12T21:17:51.606Z,98733.13
2023-04-12T21:20:20.289Z,98736.03
2023-04-12T21:22:51.773Z,98740.00
2023-04-12T21:25:21.236Z,98736.28
2023-04-12T21:27:50.393Z,98751.91
2023-04-12T21:30:20.513Z,98743.16
2023-04-12T21:32:51.839Z,98733.09
2023-04-12T21:35:21.063Z,98729.66
2023-04-12T21:37:49.878Z,98731.78
2023-04-12T21:40:18.213Z,98728.84
2023-04-12T21:42:46.560Z,98727.25
2023-04-12T21:45:15.086Z,98721.16
2023-04-12T21:47:45.038Z,98718.50
2023-04-12T21:50:14.631Z,98724.59
2023-04-12T21:52:44.160Z,98722.72
2023-04-12T21:55:12.768Z,98727.25
2023-04-12T21:57:41.455Z,98734.91
2023-04-12T22:00:11.350Z,98727.75
2023-04-12T22:02:44.448Z,98740.22
2023-04-12T22:05:13.121Z,98732.22
2023-04-12T22:07:41.808Z,98743.09
2023-04-12T22:10:12.040Z,98756.31
2023-04-12T22:12:40.843Z,98742.00
2023-04-12T22:15:11.892Z,98751.00
2023-04-12T22:17:41.088Z,98756.56
2023-04-12T22:20:12.790Z,98766.59
2023-04-12T22:22:41.645Z,98761.81
2023-04-12T22:25:12.945Z,98762.09
2023-04-12T22:27:42.203Z,98772.91
2023-04-12T22:30:11.683Z,98776.91
2023-04-12T22:32:40.459Z,98769.19
2023-04-12T22:35:11.172Z,98771.34
2023-04-12T22:37:41.384Z,98776.56
2023-04-12T22:40:13.768Z,98769.44
2023-04-12T22:42:47.360Z,98778.19
2023-04-12T22:45:17.166Z,98781.09
2023-04-12T22:47:46.286Z,98765.19
2023-04-12T22:50:16.146Z,98771.50
2023-04-12T22:52:44.528Z,98776.81
2023-04-12T22:55:14.592Z,98778.38
2023-04-12T22:57:43.563Z,98768.25
2023-04-12T23:00:18.084Z,98768.25
2023-04-12T23:02:48.551Z,98760.13
2023-04-12T23:05:19.881Z,98769.84
2023-04-12T23:07:49.410Z,98777.28
2023-04-12T23:10:18.283Z,98773.53
2023-04-12T23:12:49.145Z,98770.34
2023-04-12T23:15:17.781Z,98771.97
2023-04-12T23:17:46.267Z,98776.69
2023-04-12T23:20:15.241Z,98777.50
2023-04-12T23:22:58.003Z,98772.19
2023-04-12T23:25:39.305Z,98781.47
2023-04-12T23:28:13.515Z,98778.81
2023-04-12T23:30:44.691Z,98781.47
2023-04-12T23:33:13.128Z,98781.69
2023-04-12T23:35:42.016Z,98795.22
2023-04-12T23:38:15.899Z,98782.00
2023-04-12T23:40:44.531Z,98791.50
2023-04-12T23:43:12.941Z,98786.50
2023-04-12T23:45:41.513Z,98779.34
2023-04-12T23:48:09.971Z,98778.81
2023-04-12T23:50:39.097Z,98776.41
2023-04-12T23:53:07.503Z,98781.97
2023-04-12T23:55:37.406Z,98774.28
2023-04-12T23:58:05.944Z,98769.81
